Time;durP1;ratioP1;P1;durP2;ratioP2;P2;SDS_P1;SDS_P2;PMS_P1;PMS_P2;Temp;Humidity;BMP_temperature;BMP_pressure;BME280_temperature;BME280_humidity;BME280_pressure;Samples;Min_cycle;Max_cycle;Signal;HPM_P1;HPM_P2
2022/04/22 00:00:38;;;;;;;7.93;4.05;;;;;;;;;;5093763;28;20060;-66
2022/04/22 00:03:05;;;;;;;4.50;3.97;;;;;;;;;;5088555;28;20049;-65
2022/04/22 00:05:32;;;;;;;12.25;4.57;;;;;;;;;;5090544;28;20057;-65
2022/04/22 00:07:58;;;;;;;7.93;4.30;;;;;;;;;;5093942;28;20068;-65
2022/04/22 00:10:24;;;;;;;9.50;5.07;;;;;;;;;;5095024;28;20049;-65
2022/04/22 00:12:51;;;;;;;4.70;3.97;;;;;;;;;;5095548;28;20061;-65
2022/04/22 00:15:17;;;;;;;7.43;4.47;;;;;;;;;;5094125;28;20499;-65
2022/04/22 00:17:43;;;;;;;6.35;4.70;;;;;;;;;;5094515;28;20053;-65
2022/04/22 00:20:11;;;;;;;6.90;4.35;;;;;;;;;;5093614;28;20053;-66
2022/04/22 00:22:37;;;;;;;5.57;4.60;;;;;;;;;;5093754;28;20049;-65
2022/04/22 00:25:04;;;;;;;5.63;4.68;;;;;;;;;;5094322;28;20534;-65
2022/04/22 00:27:30;;;;;;;6.25;5.03;;;;;;;;;;5094121;28;20063;-65
2022/04/22 00:29:56;;;;;;;5.43;4.68;;;;;;;;;;5094569;28;20056;-65
2022/04/22 00:32:23;;;;;;;9.48;4.65;;;;;;;;;;5093565;28;20507;-65
2022/04/22 00:34:49;;;;;;;8.98;4.97;;;;;;;;;;5092660;28;20526;-67
2022/04/22 00:37:16;;;;;;;10.07;4.65;;;;;;;;;;5093489;28;20057;-65
2022/04/22 00:39:42;;;;;;;6.10;4.35;;;;;;;;;;5093478;28;20075;-65
2022/04/22 00:42:10;;;;;;;7.72;4.80;;;;;;;;;;5094048;28;20339;-65
2022/04/22 00:44:37;;;;;;;6.43;4.97;;;;;;;;;;5094007;28;20480;-65
2022/04/22 00:47:04;;;;;;;4.80;4.30;;;;;;;;;;5092157;28;20151;-66
2022/04/22 00:49:30;;;;;;;5.82;4.47;;;;;;;;;;5092750;28;20056;-65
2022/04/22 00:51:56;;;;;;;11.27;4.50;;;;;;;;;;5098225;28;20044;-66
2022/04/22 00:54:23;;;;;;;11.55;4.90;;;;;;;;;;5094399;28;20056;-65
2022/04/22 00:56:50;;;;;;;6.05;4.30;;;;;;;;;;5093838;28;20058;-65
2022/04/22 00:59:17;;;;;;;5.15;4.35;;;;;;;;;;5093622;28;20049;-65
2022/04/22 01:01:43;;;;;;;5.70;4.40;;;;;;;;;;5094252;28;20059;-66
2022/04/22 01:09:50;;;;;;;8.13;5.03;;;;;;;;;;5093723;28;20052;-66
2022/04/22 01:12:17;;;;;;;15.18;5.35;;;;;;;;;;5093560;28;20060;-66
2022/04/22 01:14:44;;;;;;;8.02;4.88;;;;;;;;;;5093793;28;20064;-66
2022/04/22 01:17:10;;;;;;;6.68;4.70;;;;;;;;;;5093503;28;20045;-65
2022/04/22 01:19:37;;;;;;;6.95;4.60;;;;;;;;;;5094106;28;20075;-66
2022/04/22 01:22:04;;;;;;;5.82;4.78;;;;;;;;;;5094127;28;20059;-65
2022/04/22 01:24:30;;;;;;;8.27;5.00;;;;;;;;;;5097119;28;20076;-65
2022/04/22 01:26:57;;;;;;;8.40;5.35;;;;;;;;;;5093164;28;20056;-65
2022/04/22 01:29:24;;;;;;;7.55;5.03;;;;;;;;;;5091586;28;20052;-66
2022/04/22 01:31:50;;;;;;;12.23;4.85;;;;;;;;;;5093157;28;20080;-66
2022/04/22 01:34:16;;;;;;;9.30;5.35;;;;;;;;;;5092463;28;20053;-66
2022/04/22 01:36:43;;;;;;;8.25;5.15;;;;;;;;;;5091451;28;20049;-65
2022/04/22 01:39:09;;;;;;;6.32;4.50;;;;;;;;;;5093110;28;20514;-65
2022/04/22 01:41:35;;;;;;;4.97;4.32;;;;;;;;;;5093141;28;20049;-66
2022/04/22 01:44:01;;;;;;;6.95;4.40;;;;;;;;;;5091965;28;20060;-66
2022/04/22 01:46:28;;;;;;;7.72;4.65;;;;;;;;;;5092837;28;20500;-66
2022/04/22 01:48:54;;;;;;;8.60;4.53;;;;;;;;;;5093645;28;20500;-65
2022/04/22 01:51:20;;;;;;;7.70;5.35;;;;;;;;;;5094111;28;20560;-65
2022/04/22 01:53:47;;;;;;;6.20;4.57;;;;;;;;;;5092520;28;20194;-65
2022/04/22 01:56:13;;;;;;;7.30;4.80;;;;;;;;;;5092608;28;20478;-65
2022/04/22 01:58:39;;;;;;;7.28;5.05;;;;;;;;;;5093236;27;20055;-65
2022/04/22 02:01:05;;;;;;;10.40;4.60;;;;;;;;;;5094131;28;20057;-66
2022/04/22 02:03:32;;;;;;;5.22;4.43;;;;;;;;;;5092700;28;20057;-65
2022/04/22 02:05:58;;;;;;;7.00;4.93;;;;;;;;;;5094000;28;20503;-65
2022/04/22 02:08:24;;;;;;;9.23;4.50;;;;;;;;;;5092400;28;20531;-65
2022/04/22 02:10:51;;;;;;;5.88;4.50;;;;;;;;;;5092522;28;20056;-65
2022/04/22 02:13:17;;;;;;;16.10;4.80;;;;;;;;;;5092745;28;20090;-66
2022/04/22 02:15:43;;;;;;;8.00;4.75;;;;;;;;;;5092127;28;20512;-65
2022/04/22 02:18:09;;;;;;;7.28;4.35;;;;;;;;;;5092013;28;20059;-65
2022/04/22 02:20:36;;;;;;;8.68;4.50;;;;;;;;;;5096536;28;20048;-66
2022/04/22 02:23:02;;;;;;;5.38;3.70;;;;;;;;;;5092638;28;20056;-65
2022/04/22 02:25:28;;;;;;;5.20;4.70;;;;;;;;;;5091607;28;20526;-65
2022/04/22 02:30:40;;;;;;;4.90;4.07;;;;;;;;;;5092242;28;20053;-65
2022/04/22 02:33:06;;;;;;;7.65;4.30;;;;;;;;;;5092511;28;20143;-66
2022/04/22 02:35:32;;;;;;;9.15;4.50;;;;;;;;;;5092329;28;20048;-65
2022/04/22 02:37:58;;;;;;;7.00;4.72;;;;;;;;;;5091869;28;20053;-65
2022/04/22 02:45:54;;;;;;;6.25;4.07;;;;;;;;;;5091977;28;20056;-65
2022/04/22 02:48:21;;;;;;;6.43;4.72;;;;;;;;;;5092266;28;20064;-66
2022/04/22 02:50:48;;;;;;;10.80;4.90;;;;;;;;;;5090231;28;20057;-65
2022/04/22 02:53:14;;;;;;;9.68;4.63;;;;;;;;;;5091689;28;20056;-66
2022/04/22 02:55:44;;;;;;;8.65;4.78;;;;;;;;;;5092591;28;20055;-66
2022/04/22 02:58:10;;;;;;;8.95;4.63;;;;;;;;;;5092056;28;20080;-65
2022/04/22 03:00:36;;;;;;;6.97;4.85;;;;;;;;;;5091975;28;20055;-65
2022/04/22 03:03:03;;;;;;;10.27;4.97;;;;;;;;;;5095225;28;20067;-65
2022/04/22 03:05:29;;;;;;;7.32;5.03;;;;;;;;;;5090056;28;20496;-66
2022/04/22 03:07:55;;;;;;;7.03;4.75;;;;;;;;;;5092369;28;20502;-66
2022/04/22 03:10:21;;;;;;;5.68;5.00;;;;;;;;;;5092095;28;20522;-66
2022/04/22 03:12:48;;;;;;;8.68;6.20;;;;;;;;;;5089941;28;20048;-66
2022/04/22 03:15:16;;;;;;;9.07;5.75;;;;;;;;;;5091972;28;20045;-66
2022/04/22 03:17:42;;;;;;;7.90;5.03;;;;;;;;;;5100947;28;20055;-65
2022/04/22 03:20:09;;;;;;;10.18;5.63;;;;;;;;;;5092395;27;20055;-66
2022/04/22 03:22:36;;;;;;;7.60;5.22;;;;;;;;;;5093601;28;20048;-66
2022/04/22 03:25:02;;;;;;;10.38;6.00;;;;;;;;;;5091683;28;20053;-65
2022/04/22 03:27:28;;;;;;;7.53;5.72;;;;;;;;;;5091375;28;20514;-65
2022/04/22 03:29:55;;;;;;;7.40;5.72;;;;;;;;;;5091979;28;20056;-65
2022/04/22 03:32:21;;;;;;;7.35;5.78;;;;;;;;;;5091643;28;20525;-65
2022/04/22 03:34:47;;;;;;;10.43;5.93;;;;;;;;;;5091036;28;20522;-66
2022/04/22 03:37:13;;;;;;;8.85;6.25;;;;;;;;;;5091623;28;20053;-66
2022/04/22 03:39:40;;;;;;;8.05;5.35;;;;;;;;;;5092526;28;20061;-66
2022/04/22 03:42:07;;;;;;;10.30;6.22;;;;;;;;;;5092109;28;20052;-66
2022/04/22 03:44:33;;;;;;;7.07;6.05;;;;;;;;;;5091386;28;20063;-66
2022/04/22 03:47:03;;;;;;;13.82;7.00;;;;;;;;;;5091149;28;20125;-65
2022/04/22 03:49:31;;;;;;;7.28;6.32;;;;;;;;;;5092319;28;20044;-66
2022/04/22 03:51:57;;;;;;;8.88;6.03;;;;;;;;;;5090137;28;20067;-67
2022/04/22 03:54:25;;;;;;;10.77;6.25;;;;;;;;;;5091146;28;20521;-66
2022/04/22 03:59:36;;;;;;;12.27;6.70;;;;;;;;;;5091353;28;20063;-65
2022/04/22 04:02:03;;;;;;;9.38;7.03;;;;;;;;;;5090085;28;20064;-66
2022/04/22 04:04:30;;;;;;;9.30;6.28;;;;;;;;;;5090319;28;20155;-66
2022/04/22 04:06:56;;;;;;;10.23;6.68;;;;;;;;;;5089953;28;20150;-66
2022/04/22 04:17:38;;;;;;;8.70;6.68;;;;;;;;;;5094387;28;20057;-65
2022/04/22 04:25:35;;;;;;;7.78;6.57;;;;;;;;;;5093201;28;20269;-66
2022/04/22 04:28:02;;;;;;;9.05;6.78;;;;;;;;;;5097942;28;20053;-66
2022/04/22 04:30:29;;;;;;;9.15;6.25;;;;;;;;;;5092764;27;20190;-66
2022/04/22 04:32:55;;;;;;;7.85;6.88;;;;;;;;;;5096563;28;21038;-67
2022/04/22 04:35:22;;;;;;;9.27;7.88;;;;;;;;;;5090638;28;20059;-66
2022/04/22 04:37:48;;;;;;;8.82;7.00;;;;;;;;;;5094450;28;20079;-66
2022/04/22 04:40:14;;;;;;;9.98;6.78;;;;;;;;;;5094875;28;20063;-66
2022/04/22 04:42:41;;;;;;;9.57;7.00;;;;;;;;;;5093331;28;20052;-66
2022/04/22 04:45:08;;;;;;;12.05;7.13;;;;;;;;;;5093492;28;20045;-66
2022/04/22 04:47:41;;;;;;;8.38;6.65;;;;;;;;;;5094413;28;20058;-66
2022/04/22 04:50:08;;;;;;;8.85;6.88;;;;;;;;;;5093580;28;20049;-66
2022/04/22 04:52:34;;;;;;;8.80;6.68;;;;;;;;;;5094792;28;20504;-66
2022/04/22 04:55:01;;;;;;;10.20;7.63;;;;;;;;;;5093627;28;20057;-66
2022/04/22 04:57:27;;;;;;;8.95;7.35;;;;;;;;;;5094122;28;20058;-66
2022/04/22 04:59:53;;;;;;;11.48;7.45;;;;;;;;;;5091114;28;20059;-67
2022/04/22 05:02:20;;;;;;;8.85;7.32;;;;;;;;;;5093473;28;20058;-66
2022/04/22 05:04:46;;;;;;;8.77;7.20;;;;;;;;;;5074166;28;20080;-67
2022/04/22 05:07:12;;;;;;;11.13;7.88;;;;;;;;;;5083370;28;20096;-66
2022/04/22 05:09:39;;;;;;;10.63;7.75;;;;;;;;;;5094181;28;20087;-66
2022/04/22 05:12:05;;;;;;;11.95;7.40;;;;;;;;;;5094355;28;20139;-66
2022/04/22 05:14:31;;;;;;;8.85;7.40;;;;;;;;;;5092368;28;20056;-66
2022/04/22 05:16:59;;;;;;;8.88;7.25;;;;;;;;;;5089978;28;21070;-65
2022/04/22 05:19:25;;;;;;;8.93;6.93;;;;;;;;;;5086296;28;20059;-65
2022/04/22 05:21:52;;;;;;;9.55;7.35;;;;;;;;;;5090469;28;20533;-65
2022/04/22 05:24:18;;;;;;;10.88;7.65;;;;;;;;;;5092324;28;20059;-65
2022/04/22 05:26:46;;;;;;;12.23;6.85;;;;;;;;;;5091172;28;20086;-65
2022/04/22 05:34:42;;;;;;;13.55;8.45;;;;;;;;;;5094288;28;20104;-66
2022/04/22 05:37:09;;;;;;;10.18;7.78;;;;;;;;;;5093366;28;20506;-66
2022/04/22 05:39:35;;;;;;;12.15;8.23;;;;;;;;;;5091034;28;20087;-66
2022/04/22 05:42:04;;;;;;;13.90;9.02;;;;;;;;;;5088071;28;20064;-66
2022/04/22 05:44:31;;;;;;;13.57;8.93;;;;;;;;;;5084438;28;20091;-64
2022/04/22 05:46:57;;;;;;;15.77;9.73;;;;;;;;;;5093870;28;20458;-64
2022/04/22 05:49:24;;;;;;;11.52;9.25;;;;;;;;;;5093658;28;20530;-64
2022/04/22 05:51:50;;;;;;;13.73;9.18;;;;;;;;;;5092309;28;20058;-65
2022/04/22 05:54:16;;;;;;;14.43;8.82;;;;;;;;;;5086329;28;20052;-65
2022/04/22 05:56:42;;;;;;;15.27;10.13;;;;;;;;;;5088977;28;20052;-66
2022/04/22 05:59:09;;;;;;;14.77;10.13;;;;;;;;;;5092709;28;20083;-65
2022/04/22 06:01:35;;;;;;;15.75;9.77;;;;;;;;;;5093238;28;20534;-66
2022/04/22 06:04:02;;;;;;;12.50;10.20;;;;;;;;;;5093489;28;20059;-65
2022/04/22 06:06:28;;;;;;;16.30;10.10;;;;;;;;;;5096484;28;20048;-66
2022/04/22 06:11:40;;;;;;;14.30;10.35;;;;;;;;;;5092073;28;20067;-65
2022/04/22 06:14:06;;;;;;;15.60;11.05;;;;;;;;;;5101071;28;20048;-65
2022/04/22 06:16:32;;;;;;;17.60;11.13;;;;;;;;;;5091157;28;20040;-64
2022/04/22 06:19:00;;;;;;;16.15;11.48;;;;;;;;;;5084377;28;20088;-65
2022/04/22 06:21:29;;;;;;;18.08;11.38;;;;;;;;;;5075584;28;20057;-64
2022/04/22 06:23:55;;;;;;;15.40;10.82;;;;;;;;;;5093511;28;20045;-64
2022/04/22 06:26:21;;;;;;;19.02;12.48;;;;;;;;;;5092088;28;20059;-63
2022/04/22 06:28:47;;;;;;;16.90;11.23;;;;;;;;;;5091954;28;20055;-63
2022/04/22 06:31:14;;;;;;;18.02;11.68;;;;;;;;;;5088570;28;20107;-62
2022/04/22 06:33:40;;;;;;;16.05;11.43;;;;;;;;;;5080215;28;20052;-64
2022/04/22 06:36:12;;;;;;;18.02;11.02;;;;;;;;;;5093211;28;20049;-64
2022/04/22 06:38:39;;;;;;;18.13;12.15;;;;;;;;;;5091604;28;20510;-65
2022/04/22 06:46:36;;;;;;;18.00;12.00;;;;;;;;;;5092275;28;20496;-64
2022/04/22 06:49:03;;;;;;;15.35;11.23;;;;;;;;;;5094227;28;20147;-64
2022/04/22 06:51:29;;;;;;;15.63;11.60;;;;;;;;;;5092450;28;20059;-63
2022/04/22 06:53:56;;;;;;;17.40;10.85;;;;;;;;;;5092907;28;20048;-65
2022/04/22 06:56:26;;;;;;;15.75;11.13;;;;;;;;;;5092056;28;20051;-65
2022/04/22 06:58:52;;;;;;;16.38;10.50;;;;;;;;;;5090448;28;20064;-65
2022/04/22 07:01:19;;;;;;;16.63;11.13;;;;;;;;;;5093550;28;20048;-65
2022/04/22 07:04:06;;;;;;;15.40;10.68;;;;;;;;;;5090513;28;20056;-65
2022/04/22 07:06:37;;;;;;;19.63;12.40;;;;;;;;;;5092912;28;20052;-65
2022/04/22 07:09:04;;;;;;;19.02;11.35;;;;;;;;;;5090944;28;20059;-65
2022/04/22 07:11:31;;;;;;;13.25;9.90;;;;;;;;;;5091429;28;20106;-66
2022/04/22 07:13:58;;;;;;;17.27;10.30;;;;;;;;;;5087745;28;20060;-65
2022/04/22 07:16:25;;;;;;;17.92;10.77;;;;;;;;;;5091511;28;20132;-65
2022/04/22 07:18:59;;;;;;;14.60;9.80;;;;;;;;;;5091486;28;20057;-65
2022/04/22 07:21:26;;;;;;;15.68;10.02;;;;;;;;;;5091312;28;20498;-65
2022/04/22 07:23:53;;;;;;;16.70;10.00;;;;;;;;;;5092009;28;20045;-66
2022/04/22 07:26:20;;;;;;;15.48;9.73;;;;;;;;;;5089934;28;20056;-65
2022/04/22 07:28:50;;;;;;;15.75;9.07;;;;;;;;;;5101109;28;20505;-65
2022/04/22 07:31:18;;;;;;;14.13;9.75;;;;;;;;;;5099661;28;20094;-64
2022/04/22 07:33:45;;;;;;;12.30;9.18;;;;;;;;;;5091088;28;20143;-66
2022/04/22 07:36:12;;;;;;;15.45;9.57;;;;;;;;;;5091437;28;20068;-66
2022/04/22 07:38:38;;;;;;;18.70;9.68;;;;;;;;;;5091983;28;20080;-67
2022/04/22 07:41:06;;;;;;;15.50;9.73;;;;;;;;;;5091728;28;20058;-67
2022/04/22 07:49:03;;;;;;;13.05;8.85;;;;;;;;;;5089733;28;20718;-65
2022/04/22 07:51:29;;;;;;;16.70;8.88;;;;;;;;;;5092065;28;20051;-65
2022/04/22 07:53:56;;;;;;;13.52;9.05;;;;;;;;;;5095669;28;20063;-64
2022/04/22 07:56:22;;;;;;;14.93;9.18;;;;;;;;;;5095337;28;20045;-65
2022/04/22 07:58:49;;;;;;;11.38;8.95;;;;;;;;;;5095669;28;20107;-63
2022/04/22 08:01:15;;;;;;;12.68;9.23;;;;;;;;;;5095440;28;20500;-64
2022/04/22 08:03:42;;;;;;;19.05;9.65;;;;;;;;;;5094337;28;20159;-64
2022/04/22 08:06:10;;;;;;;13.55;8.68;;;;;;;;;;5095195;28;20056;-64
2022/04/22 08:08:36;;;;;;;10.65;8.35;;;;;;;;;;5116287;27;20056;-64
2022/04/22 08:11:02;;;;;;;11.82;8.45;;;;;;;;;;5094662;28;20103;-64
2022/04/22 08:13:29;;;;;;;13.57;8.73;;;;;;;;;;5095601;28;20063;-64
2022/04/22 08:15:55;;;;;;;13.90;8.68;;;;;;;;;;5094917;28;20044;-64
2022/04/22 08:18:21;;;;;;;15.30;9.05;;;;;;;;;;5095310;28;20080;-64
2022/04/22 08:20:48;;;;;;;11.00;8.05;;;;;;;;;;5095263;28;20057;-64
2022/04/22 08:23:16;;;;;;;11.20;8.00;;;;;;;;;;5094501;28;20106;-64
2022/04/22 08:25:43;;;;;;;9.88;7.45;;;;;;;;;;5094897;28;20056;-64
2022/04/22 08:28:09;;;;;;;12.52;8.07;;;;;;;;;;5093689;28;20048;-63
2022/04/22 08:30:35;;;;;;;10.05;7.63;;;;;;;;;;5096299;28;20053;-64
2022/04/22 08:33:02;;;;;;;9.88;7.60;;;;;;;;;;5086839;28;20561;-65
2022/04/22 08:35:28;;;;;;;11.63;8.00;;;;;;;;;;5094939;28;20056;-64
2022/04/22 08:37:55;;;;;;;11.32;7.63;;;;;;;;;;5092107;28;20500;-64
2022/04/22 08:40:21;;;;;;;8.98;7.25;;;;;;;;;;5095330;28;20523;-64
2022/04/22 08:42:49;;;;;;;9.57;7.97;;;;;;;;;;5093012;28;20190;-65
2022/04/22 08:45:16;;;;;;;11.57;7.05;;;;;;;;;;5112074;28;20052;-64
2022/04/22 08:50:30;;;;;;;10.70;7.13;;;;;;;;;;5094224;28;20049;-68
2022/04/22 08:53:02;;;;;;;12.80;7.85;;;;;;;;;;5094875;28;20053;-68
2022/04/22 08:55:31;;;;;;;9.93;7.70;;;;;;;;;;5094854;28;20067;-68
2022/04/22 08:57:58;;;;;;;11.20;7.03;;;;;;;;;;5094139;28;20052;-68
2022/04/22 09:00:27;;;;;;;11.70;7.63;;;;;;;;;;5095703;28;20056;-68
2022/04/22 09:02:54;;;;;;;11.75;7.43;;;;;;;;;;5094151;28;20083;-67
2022/04/22 09:05:21;;;;;;;8.75;7.53;;;;;;;;;;5094447;28;20057;-69
2022/04/22 09:07:47;;;;;;;9.75;7.53;;;;;;;;;;5094516;28;20492;-68
2022/04/22 09:10:14;;;;;;;10.65;7.18;;;;;;;;;;5094567;28;20048;-68
2022/04/22 09:12:42;;;;;;;10.23;6.78;;;;;;;;;;5094429;28;20041;-67
2022/04/22 09:15:09;;;;;;;9.25;6.97;;;;;;;;;;5092635;28;20137;-68
2022/04/22 09:17:38;;;;;;;9.30;6.25;;;;;;;;;;5083278;28;20045;-69
2022/04/22 09:20:04;;;;;;;19.45;7.32;;;;;;;;;;5079740;28;20052;-67
2022/04/22 09:22:34;;;;;;;9.52;6.63;;;;;;;;;;5080534;28;20049;-67
2022/04/22 09:25:01;;;;;;;9.55;6.43;;;;;;;;;;5087836;28;20567;-68
2022/04/22 09:27:35;;;;;;;13.18;6.68;;;;;;;;;;5089961;28;20063;-68
2022/04/22 09:30:03;;;;;;;17.25;5.70;;;;;;;;;;5081300;28;20056;-68
2022/04/22 09:32:30;;;;;;;11.00;6.90;;;;;;;;;;5081369;28;20110;-69
2022/04/22 09:34:58;;;;;;;7.28;5.18;;;;;;;;;;5078924;28;20052;-69
2022/04/22 09:42:56;;;;;;;7.35;6.10;;;;;;;;;;5086092;28;20106;-68
2022/04/22 09:45:34;;;;;;;5.80;5.03;;;;;;;;;;5093821;28;20052;-69
2022/04/22 09:48:00;;;;;;;7.53;5.53;;;;;;;;;;5082556;28;20059;-69
2022/04/22 09:50:40;;;;;;;8.82;5.82;;;;;;;;;;5087525;28;20059;-69
2022/04/22 09:53:09;;;;;;;6.40;5.30;;;;;;;;;;5099855;28;20053;-68
2022/04/22 09:55:37;;;;;;;10.73;5.60;;;;;;;;;;5092765;28;20052;-68
2022/04/22 09:58:09;;;;;;;7.25;6.13;;;;;;;;;;5092578;28;20053;-67
2022/04/22 10:00:35;;;;;;;7.80;5.32;;;;;;;;;;5093600;28;20492;-67
2022/04/22 10:03:03;;;;;;;8.25;5.63;;;;;;;;;;5093904;28;20061;-67
2022/04/22 10:05:31;;;;;;;8.43;5.70;;;;;;;;;;5098283;28;20110;-67
2022/04/22 10:08:00;;;;;;;7.93;5.38;;;;;;;;;;5093614;28;20052;-68
2022/04/22 10:10:29;;;;;;;7.20;5.20;;;;;;;;;;5093487;28;20049;-67
2022/04/22 10:12:58;;;;;;;6.85;5.35;;;;;;;;;;5093016;28;20048;-67
2022/04/22 10:15:26;;;;;;;8.73;5.85;;;;;;;;;;5091097;28;20052;-68
2022/04/22 10:17:52;;;;;;;5.50;4.93;;;;;;;;;;5092763;28;20049;-69
2022/04/22 10:20:19;;;;;;;7.95;5.68;;;;;;;;;;5093200;28;20181;-67
2022/04/22 10:22:51;;;;;;;8.73;5.50;;;;;;;;;;5093332;28;20048;-67
2022/04/22 10:25:17;;;;;;;8.43;5.40;;;;;;;;;;5091927;28;20045;-68
2022/04/22 10:27:44;;;;;;;7.85;5.78;;;;;;;;;;5095533;28;20056;-68
2022/04/22 10:30:11;;;;;;;7.47;5.65;;;;;;;;;;5097625;28;20064;-69
2022/04/22 10:32:40;;;;;;;8.30;5.82;;;;;;;;;;5097314;28;20502;-67
2022/04/22 10:35:07;;;;;;;13.15;6.45;;;;;;;;;;5086944;28;20060;-68
2022/04/22 10:37:34;;;;;;;6.88;5.35;;;;;;;;;;5084057;28;20515;-68
2022/04/22 10:40:04;;;;;;;8.60;5.53;;;;;;;;;;5088001;28;20056;-68
2022/04/22 10:42:32;;;;;;;7.20;4.68;;;;;;;;;;5088662;27;20052;-68
2022/04/22 10:47:49;;;;;;;11.48;5.65;;;;;;;;;;5092409;28;20162;-68
2022/04/22 10:50:29;;;;;;;6.25;5.57;;;;;;;;;;5091707;28;20051;-69
2022/04/22 10:52:55;;;;;;;9.45;5.40;;;;;;;;;;5089448;28;20525;-68
2022/04/22 10:55:21;;;;;;;8.02;4.93;;;;;;;;;;5092746;27;20514;-69
2022/04/22 10:58:09;;;;;;;7.47;5.10;;;;;;;;;;5092538;28;20055;-70
2022/04/22 11:00:35;;;;;;;5.50;4.75;;;;;;;;;;5086953;28;20051;-69
2022/04/22 11:03:08;;;;;;;6.03;5.03;;;;;;;;;;5087882;28;20056;-70
2022/04/22 11:05:35;;;;;;;8.18;4.63;;;;;;;;;;5093587;28;20055;-69
2022/04/22 11:08:06;;;;;;;11.23;4.93;;;;;;;;;;5089391;28;20092;-69
2022/04/22 11:10:48;;;;;;;8.63;4.53;;;;;;;;;;5090026;28;20510;-69
2022/04/22 11:13:28;;;;;;;9.18;4.43;;;;;;;;;;5088474;28;20048;-69
2022/04/22 11:15:58;;;;;;;7.30;4.03;;;;;;;;;;5086609;28;20053;-69
2022/04/22 11:18:26;;;;;;;8.20;4.00;;;;;;;;;;5082990;28;20110;-70
2022/04/22 11:20:52;;;;;;;6.22;3.55;;;;;;;;;;5091593;28;20059;-69
2022/04/22 11:23:18;;;;;;;5.65;3.33;;;;;;;;;;5089506;28;20512;-70
2022/04/22 11:25:51;;;;;;;3.78;3.10;;;;;;;;;;5088528;28;20057;-68
2022/04/22 11:28:19;;;;;;;5.03;2.88;;;;;;;;;;5093164;28;20056;-68
2022/04/22 11:30:45;;;;;;;4.07;2.72;;;;;;;;;;5085484;28;20052;-67
2022/04/22 11:33:22;;;;;;;10.18;2.83;;;;;;;;;;5096073;28;20055;-67
2022/04/22 11:35:49;;;;;;;6.65;2.72;;;;;;;;;;5089147;28;20048;-68
2022/04/22 11:38:16;;;;;;;9.10;3.35;;;;;;;;;;5088043;28;20061;-68
2022/04/22 11:40:44;;;;;;;2.60;2.35;;;;;;;;;;5086116;28;20063;-69
2022/04/22 11:43:11;;;;;;;7.53;2.83;;;;;;;;;;5087112;28;20063;-68
2022/04/22 11:45:41;;;;;;;5.57;3.00;;;;;;;;;;5084753;28;20052;-69
2022/04/22 11:48:08;;;;;;;7.03;2.72;;;;;;;;;;5088917;28;20106;-69
2022/04/22 11:50:41;;;;;;;3.90;2.20;;;;;;;;;;5084682;28;20080;-68
2022/04/22 11:53:15;;;;;;;14.25;2.72;;;;;;;;;;5083612;28;20044;-67
2022/04/22 11:55:42;;;;;;;6.80;2.90;;;;;;;;;;5087256;28;20063;-69
2022/04/22 11:58:11;;;;;;;7.60;2.85;;;;;;;;;;5095368;28;20044;-70
2022/04/22 12:06:13;;;;;;;3.35;2.28;;;;;;;;;;5093355;28;20116;-69
2022/04/22 12:08:59;;;;;;;11.10;2.42;;;;;;;;;;5093743;28;20059;-69
2022/04/22 12:11:26;;;;;;;4.03;2.60;;;;;;;;;;5087185;28;20052;-69
2022/04/22 12:13:54;;;;;;;4.15;2.60;;;;;;;;;;5093843;28;20049;-69
2022/04/22 12:16:21;;;;;;;4.22;2.45;;;;;;;;;;5088889;28;20059;-68
2022/04/22 12:18:49;;;;;;;7.75;2.60;;;;;;;;;;5097472;28;20541;-69
2022/04/22 12:21:15;;;;;;;10.23;2.88;;;;;;;;;;5096425;27;21332;-69
2022/04/22 12:23:43;;;;;;;4.45;2.72;;;;;;;;;;5106281;27;20052;-70
2022/04/22 12:26:13;;;;;;;5.13;2.97;;;;;;;;;;5097133;28;20053;-70
2022/04/22 12:28:55;;;;;;;3.40;2.85;;;;;;;;;;5091855;28;20056;-69
2022/04/22 12:31:21;;;;;;;7.65;3.60;;;;;;;;;;5088369;28;20048;-68
2022/04/22 12:34:08;;;;;;;4.88;3.40;;;;;;;;;;5091019;28;20100;-68
2022/04/22 12:36:36;;;;;;;4.28;2.97;;;;;;;;;;5088873;27;20052;-68
2022/04/22 12:39:04;;;;;;;3.15;2.70;;;;;;;;;;5093319;28;20056;-68
2022/04/22 12:41:41;;;;;;;4.90;3.03;;;;;;;;;;5093643;28;20056;-68
2022/04/22 12:44:13;;;;;;;4.25;2.78;;;;;;;;;;5085090;28;20504;-69
2022/04/22 12:52:31;;;;;;;8.18;3.42;;;;;;;;;;5047639;28;20085;-68
2022/04/22 12:55:02;;;;;;;3.30;2.80;;;;;;;;;;5064442;28;20155;-68
2022/04/22 12:57:28;;;;;;;4.60;2.75;;;;;;;;;;5088005;28;20058;-68
2022/04/22 12:59:55;;;;;;;6.55;2.38;;;;;;;;;;5091616;28;20052;-69
2022/04/22 13:02:29;;;;;;;6.35;2.78;;;;;;;;;;5087581;28;20053;-70
2022/04/22 13:04:56;;;;;;;3.20;2.90;;;;;;;;;;5086727;28;20060;-70
2022/04/22 13:07:23;;;;;;;3.95;2.70;;;;;;;;;;5087943;28;20138;-70
2022/04/22 13:09:50;;;;;;;2.70;2.50;;;;;;;;;;5087058;28;20496;-70
2022/04/22 13:12:16;;;;;;;4.28;3.38;;;;;;;;;;5090396;28;20053;-69
2022/04/22 13:14:43;;;;;;;5.38;2.85;;;;;;;;;;5092260;28;20476;-70
2022/04/22 13:17:19;;;;;;;4.85;3.00;;;;;;;;;;5089443;28;20052;-71
2022/04/22 13:19:45;;;;;;;5.50;3.10;;;;;;;;;;5088311;28;20048;-69
2022/04/22 13:22:12;;;;;;;4.20;2.83;;;;;;;;;;5087205;28;20051;-70
2022/04/22 13:24:40;;;;;;;5.70;3.13;;;;;;;;;;5083931;28;20052;-70
2022/04/22 13:27:07;;;;;;;5.18;2.80;;;;;;;;;;5086468;28;20056;-69
2022/04/22 13:29:33;;;;;;;2.63;2.38;;;;;;;;;;5090695;28;20139;-69
2022/04/22 13:32:00;;;;;;;9.38;3.10;;;;;;;;;;5093160;28;20052;-69
2022/04/22 13:34:26;;;;;;;2.90;2.40;;;;;;;;;;5092435;28;20055;-69
2022/04/22 13:36:53;;;;;;;4.75;2.85;;;;;;;;;;5091848;28;20056;-69
2022/04/22 13:39:19;;;;;;;4.00;2.22;;;;;;;;;;5084869;28;20052;-70
2022/04/22 13:41:45;;;;;;;3.83;3.10;;;;;;;;;;5090599;28;20060;-70
2022/04/22 13:44:11;;;;;;;5.63;2.83;;;;;;;;;;5091032;28;20064;-69
2022/04/22 13:52:25;;;;;;;2.42;2.10;;;;;;;;;;5085036;28;20057;-69
2022/04/22 13:54:53;;;;;;;7.30;2.90;;;;;;;;;;5090541;28;20053;-68
2022/04/22 13:57:19;;;;;;;4.40;2.33;;;;;;;;;;5086310;28;20143;-69
2022/04/22 13:59:47;;;;;;;3.60;2.45;;;;;;;;;;5089469;28;20059;-68
2022/04/22 14:02:13;;;;;;;4.50;2.63;;;;;;;;;;5090174;28;20052;-69
2022/04/22 14:04:41;;;;;;;3.72;2.17;;;;;;;;;;5086049;28;20052;-69
2022/04/22 14:07:08;;;;;;;3.00;2.53;;;;;;;;;;5082011;28;20171;-68
2022/04/22 14:09:35;;;;;;;5.75;2.70;;;;;;;;;;5097636;28;20083;-69
2022/04/22 14:12:02;;;;;;;6.43;2.65;;;;;;;;;;5088608;27;20093;-69
2022/04/22 14:14:28;;;;;;;2.88;2.30;;;;;;;;;;5089806;28;20048;-70
2022/04/22 14:16:55;;;;;;;4.38;2.75;;;;;;;;;;5091005;28;20053;-70
2022/04/22 14:19:22;;;;;;;7.18;2.55;;;;;;;;;;5081464;28;20057;-70
2022/04/22 14:21:48;;;;;;;6.22;2.50;;;;;;;;;;5083941;28;20090;-71
2022/04/22 14:24:15;;;;;;;3.83;2.30;;;;;;;;;;5084082;28;20053;-69
2022/04/22 14:26:41;;;;;;;2.55;2.30;;;;;;;;;;5085057;28;20495;-70
2022/04/22 14:29:27;;;;;;;2.70;2.50;;;;;;;;;;5088088;27;20498;-70
2022/04/22 14:31:54;;;;;;;4.55;2.80;;;;;;;;;;5090375;28;20063;-72
2022/04/22 14:34:21;;;;;;;6.20;2.47;;;;;;;;;;5093212;28;20051;-71
2022/04/22 14:36:47;;;;;;;3.75;2.80;;;;;;;;;;5090709;28;20068;-70
2022/04/22 14:39:13;;;;;;;4.63;2.40;;;;;;;;;;5088704;28;20400;-71
2022/04/22 14:41:46;;;;;;;5.18;2.85;;;;;;;;;;5088740;28;20078;-71
2022/04/22 14:44:14;;;;;;;3.95;2.70;;;;;;;;;;5079338;28;20492;-70
2022/04/22 14:46:41;;;;;;;3.35;3.05;;;;;;;;;;5088935;28;20052;-70
2022/04/22 14:49:08;;;;;;;3.78;3.17;;;;;;;;;;5088443;28;20139;-68
2022/04/22 14:51:35;;;;;;;5.05;2.45;;;;;;;;;;5077383;28;20058;-69
2022/04/22 14:54:01;;;;;;;5.45;2.80;;;;;;;;;;5084799;28;20064;-69
2022/04/22 14:56:27;;;;;;;5.28;3.45;;;;;;;;;;5083173;28;20063;-69
2022/04/22 14:59:11;;;;;;;8.73;2.97;;;;;;;;;;5091404;28;20126;-69
2022/04/22 15:01:37;;;;;;;4.82;3.15;;;;;;;;;;5091938;28;20075;-69
2022/04/22 15:04:04;;;;;;;4.85;3.58;;;;;;;;;;5085729;28;20060;-70
2022/04/22 15:06:32;;;;;;;4.53;3.00;;;;;;;;;;5090712;28;20054;-69
2022/04/22 15:08:58;;;;;;;4.07;3.25;;;;;;;;;;5086536;28;20055;-70
2022/04/22 15:11:24;;;;;;;7.63;3.28;;;;;;;;;;5093609;28;20487;-70
2022/04/22 15:13:51;;;;;;;6.75;4.03;;;;;;;;;;5091443;28;20049;-71
2022/04/22 15:16:17;;;;;;;5.47;3.33;;;;;;;;;;5087306;28;20052;-71
2022/04/22 15:24:17;;;;;;;11.60;4.27;;;;;;;;;;5091342;28;20508;-71
2022/04/22 15:26:44;;;;;;;8.00;3.83;;;;;;;;;;5087568;28;20056;-69
2022/04/22 15:29:12;;;;;;;5.93;3.95;;;;;;;;;;5090487;28;20079;-69
2022/04/22 15:31:39;;;;;;;15.15;4.10;;;;;;;;;;5083666;28;20060;-71
2022/04/22 15:34:06;;;;;;;5.95;3.65;;;;;;;;;;5091534;28;20067;-71
2022/04/22 15:36:32;;;;;;;7.97;4.45;;;;;;;;;;5090735;28;20491;-68
2022/04/22 15:39:01;;;;;;;7.13;4.47;;;;;;;;;;5091508;28;20511;-68
2022/04/22 15:41:32;;;;;;;8.90;4.30;;;;;;;;;;5090655;28;20057;-68
2022/04/22 15:44:00;;;;;;;6.35;3.78;;;;;;;;;;5091366;28;20131;-69
2022/04/22 15:46:27;;;;;;;8.30;4.75;;;;;;;;;;5088254;28;20505;-69
2022/04/22 15:48:54;;;;;;;5.60;4.28;;;;;;;;;;5091457;28;20083;-69
2022/04/22 15:51:27;;;;;;;6.95;4.18;;;;;;;;;;5088683;28;20049;-69
2022/04/22 15:53:56;;;;;;;6.90;4.05;;;;;;;;;;5091507;28;20499;-69
2022/04/22 15:56:24;;;;;;;6.57;4.43;;;;;;;;;;5091505;28;20048;-69
2022/04/22 15:58:52;;;;;;;5.70;3.95;;;;;;;;;;5089721;28;20057;-69
2022/04/22 16:01:20;;;;;;;7.60;4.07;;;;;;;;;;5091273;28;20507;-69
2022/04/22 16:03:48;;;;;;;6.63;3.78;;;;;;;;;;5090952;28;20056;-68